Terminal Aerodrome Forecast
Issued by NWS Cleveland, OH

Home | Current Version | Previous Version | Graphics & Text | Print | Product List | Glossary On
Versions: 1 2 3 4 5 6 7 8 9 10 11 12 13 14 15
318
FTUS41 KCLE 162331
TAFMFD
TAF
KMFD 162331Z 1700/1724 25015G21KT P6SM -SHSN OVC025
     FM170300 26015KT P6SM -SHSN OVC010
     FM170900 26015KT P6SM -SHSN OVC007
     FM171200 27015KT P6SM OVC015=

USA.gov is the U.S. government's official web portal to all federal, state and local government web resources and services.